Time;durP1;ratioP1;P1;durP2;ratioP2;P2;SDS_P1;SDS_P2;PMS_P1;PMS_P2;Temp;Humidity;BMP_temperature;BMP_pressure;BME280_temperature;BME280_humidity;BME280_pressure;Samples;Min_cycle;Max_cycle;Signal;HPM_P1;HPM_P2
2024/02/04 00:00:44;;;;;;;1.10;1.00;;;;;;;8.08;100.00;97328.09;5079255;28;20227;-68
2024/02/04 00:03:11;;;;;;;1.90;1.10;;;;;;;8.24;100.00;97324.97;5079872;28;20597;-68
2024/02/04 00:05:38;;;;;;;1.87;1.20;;;;;;;8.19;100.00;97325.34;5080300;28;20230;-69
2024/02/04 00:08:06;;;;;;;2.43;1.23;;;;;;;8.08;100.00;97327.25;5079265;28;20215;-68
2024/02/04 00:10:32;;;;;;;1.10;0.83;;;;;;;7.96;100.00;97323.09;5079253;28;20242;-68
2024/02/04 00:12:59;;;;;;;1.80;0.90;;;;;;;7.98;100.00;97310.63;5079961;28;20208;-69
2024/02/04 00:15:26;;;;;;;1.63;0.80;;;;;;;8.03;100.00;97298.78;5079799;28;20211;-68
2024/02/04 00:17:52;;;;;;;2.03;1.10;;;;;;;8.09;100.00;97297.41;5079777;28;20402;-68
2024/02/04 00:20:19;;;;;;;1.20;1.10;;;;;;;8.07;100.00;97294.94;5079154;28;20318;-68
2024/02/04 00:22:47;;;;;;;1.23;1.13;;;;;;;8.08;100.00;97314.13;5079411;28;20210;-68
2024/02/04 00:25:14;;;;;;;1.70;1.13;;;;;;;8.03;100.00;97304.03;5079259;28;20207;-68
2024/02/04 00:27:41;;;;;;;1.17;1.07;;;;;;;8.04;100.00;97300.47;5079779;28;20200;-68
2024/02/04 00:30:08;;;;;;;0.83;0.83;;;;;;;8.02;100.00;97302.38;5079489;28;20226;-67
2024/02/04 00:32:35;;;;;;;1.70;1.30;;;;;;;7.93;100.00;97294.50;5079439;28;20744;-67
2024/02/04 00:35:02;;;;;;;1.40;1.20;;;;;;;7.99;100.00;97284.28;5078925;28;20218;-67
2024/02/04 00:37:29;;;;;;;2.60;1.10;;;;;;;8.05;100.00;97277.66;5079292;28;20277;-67
2024/02/04 00:39:57;;;;;;;2.20;1.43;;;;;;;8.17;100.00;97289.69;5078350;28;20288;-67
2024/02/04 00:42:23;;;;;;;2.33;1.30;;;;;;;7.98;100.00;97294.88;5078801;28;20196;-67
2024/02/04 00:44:50;;;;;;;2.10;1.40;;;;;;;8.05;100.00;97283.72;5078847;28;20580;-67
2024/02/04 00:47:16;;;;;;;1.03;0.90;;;;;;;7.95;100.00;97282.88;5078986;28;20200;-67
2024/02/04 00:49:43;;;;;;;1.37;1.00;;;;;;;7.92;100.00;97279.72;5078508;28;20226;-67
2024/02/04 00:52:09;;;;;;;1.53;1.00;;;;;;;7.87;100.00;97271.41;5079121;28;20918;-68
2024/02/04 00:54:36;;;;;;;1.23;1.03;;;;;;;7.93;100.00;97270.88;5079033;28;20208;-67
2024/02/04 00:57:04;;;;;;;1.20;1.07;;;;;;;8.12;100.00;97268.25;5078678;28;20724;-67
2024/02/04 00:59:31;;;;;;;3.43;1.40;;;;;;;8.03;100.00;97269.06;5078231;28;20220;-67
2024/02/04 01:01:58;;;;;;;1.50;1.10;;;;;;;7.94;100.00;97260.25;5078987;28;20212;-67
2024/02/04 01:04:25;;;;;;;1.70;0.87;;;;;;;8.02;100.00;97257.75;5078532;28;20470;-67
2024/02/04 01:06:51;;;;;;;1.87;0.97;;;;;;;7.91;100.00;97263.09;5078518;28;20234;-67
2024/02/04 01:09:18;;;;;;;1.17;0.83;;;;;;;7.97;100.00;97259.13;5078446;28;20496;-68
2024/02/04 01:11:45;;;;;;;1.57;0.80;;;;;;;7.95;100.00;97263.69;5078228;28;20207;-67
2024/02/04 01:14:12;;;;;;;1.80;0.87;;;;;;;8.08;100.00;97266.88;5078505;28;20200;-67
2024/02/04 01:16:39;;;;;;;1.10;1.00;;;;;;;7.95;100.00;97276.81;5079216;28;20697;-68
2024/02/04 01:19:05;;;;;;;1.37;1.10;;;;;;;7.88;100.00;97273.06;5077871;28;20208;-67
2024/02/04 01:21:32;;;;;;;1.07;0.90;;;;;;;7.80;100.00;97278.16;5078276;28;20206;-67
2024/02/04 01:23:58;;;;;;;3.57;1.90;;;;;;;7.77;100.00;97282.84;5078711;28;20321;-67
2024/02/04 01:26:25;;;;;;;1.30;1.20;;;;;;;7.88;100.00;97288.81;5078564;28;20720;-67
2024/02/04 01:28:51;;;;;;;1.90;1.33;;;;;;;8.00;100.00;97288.53;5077400;28;20204;-67
2024/02/04 01:31:19;;;;;;;1.03;0.93;;;;;;;7.88;100.00;97294.06;5078574;28;20226;-68
2024/02/04 01:33:46;;;;;;;1.63;0.90;;;;;;;7.91;100.00;97283.28;5077867;28;20211;-67
2024/02/04 01:36:13;;;;;;;1.87;1.17;;;;;;;7.88;100.00;97292.25;5078298;28;20210;-67
2024/02/04 01:38:39;;;;;;;1.57;0.87;;;;;;;7.77;100.00;97290.72;5078146;28;20290;-68
2024/02/04 01:41:06;;;;;;;1.30;1.10;;;;;;;7.72;100.00;97287.66;5077322;28;20319;-67
2024/02/04 01:43:32;;;;;;;1.67;1.30;;;;;;;7.90;100.00;97286.88;5078052;28;20210;-67
2024/02/04 01:45:59;;;;;;;4.70;1.30;;;;;;;7.90;100.00;97281.63;5077454;28;20244;-68
2024/02/04 01:48:27;;;;;;;1.57;1.17;;;;;;;7.86;100.00;97289.91;5077911;28;20219;-67
2024/02/04 01:50:56;;;;;;;2.43;1.20;;;;;;;7.87;100.00;97271.41;5077479;28;20238;-67
2024/02/04 01:53:23;;;;;;;1.53;1.33;;;;;;;8.00;100.00;97267.53;5077962;28;20200;-67
2024/02/04 01:55:50;;;;;;;1.10;1.00;;;;;;;7.92;100.00;97258.72;5077838;28;20211;-67
2024/02/04 01:58:18;;;;;;;1.87;1.23;;;;;;;7.86;100.00;97254.00;5076594;28;20219;-67
2024/02/04 02:00:46;;;;;;;1.10;1.00;;;;;;;7.93;100.00;97242.00;5077530;28;20226;-67
2024/02/04 02:03:13;;;;;;;1.70;1.17;;;;;;;7.86;100.00;97233.00;5077914;28;20196;-67
2024/02/04 02:05:42;;;;;;;1.60;1.17;;;;;;;7.92;100.00;97232.47;5077403;28;20686;-68
2024/02/04 02:08:08;;;;;;;3.13;1.50;;;;;;;7.75;100.00;97230.53;5076777;28;20895;-67
2024/02/04 02:10:35;;;;;;;2.40;1.17;;;;;;;7.73;100.00;97235.06;5077401;28;20233;-68
2024/02/04 02:13:15;;;;;;;3.53;1.60;;;;;;;7.96;100.00;97233.84;5077810;28;20226;-67
2024/02/04 02:15:48;;;;;;;2.07;1.20;;;;;;;7.85;100.00;97236.59;5076568;28;20210;-67
2024/02/04 02:18:20;;;;;;;3.53;1.77;;;;;;;7.99;100.00;97238.81;5076890;28;20260;-67
2024/02/04 02:21:10;;;;;;;2.07;1.30;;;;;;;8.19;100.00;97233.47;5077552;28;20219;-67
2024/02/04 02:23:45;;;;;;;2.67;1.73;;;;;;;8.01;100.00;97247.41;5076896;28;20895;-67
2024/02/04 02:26:13;;;;;;;2.93;1.10;;;;;;;7.85;100.00;97252.34;5077189;28;20229;-67
2024/02/04 02:28:41;;;;;;;1.77;1.20;;;;;;;7.72;100.00;97253.56;5076764;28;20206;-67
2024/02/04 02:31:07;;;;;;;2.50;1.33;;;;;;;7.70;100.00;97252.84;5076292;28;20219;-67
2024/02/04 02:33:34;;;;;;;2.27;1.30;;;;;;;7.81;100.00;97256.19;5077054;28;20202;-67
2024/02/04 02:36:07;;;;;;;1.70;1.13;;;;;;;7.82;100.00;97267.53;5077323;28;20204;-67
2024/02/04 02:38:42;;;;;;;2.03;1.20;;;;;;;7.95;100.00;97266.31;5076253;28;20228;-67
2024/02/04 02:41:10;;;;;;;1.87;1.30;;;;;;;7.75;100.00;97248.03;5077043;28;20235;-67
2024/02/04 02:43:41;;;;;;;2.60;1.57;;;;;;;7.81;100.00;97250.94;5076919;28;20207;-67
2024/02/04 02:46:08;;;;;;;1.53;0.93;;;;;;;7.61;100.00;97240.56;5076467;28;20200;-67
2024/02/04 02:48:35;;;;;;;1.80;1.20;;;;;;;7.60;100.00;97247.59;5076379;28;20593;-67
2024/02/04 02:51:02;;;;;;;2.90;1.90;;;;;;;7.81;100.00;97250.94;5077304;28;20220;-67
2024/02/04 02:53:28;;;;;;;2.30;1.30;;;;;;;7.62;100.00;97261.41;5076917;28;20226;-67
2024/02/04 02:55:55;;;;;;;1.93;1.43;;;;;;;7.62;100.00;97266.66;5076187;28;20284;-67
2024/02/04 02:58:21;;;;;;;2.47;1.43;;;;;;;7.63;100.00;97275.38;5076599;28;20589;-67
2024/02/04 03:00:49;;;;;;;3.33;1.70;;;;;;;7.80;100.00;97272.91;5076942;28;20227;-67
2024/02/04 03:03:16;;;;;;;2.97;1.53;;;;;;;7.54;100.00;97284.03;5075992;28;20204;-67
2024/02/04 03:05:42;;;;;;;2.17;1.37;;;;;;;7.55;100.00;97281.28;5076316;28;20199;-67
2024/02/04 03:08:09;;;;;;;2.20;1.20;;;;;;;7.56;100.00;97272.44;5076359;28;20210;-67
2024/02/04 03:10:35;;;;;;;2.33;1.07;;;;;;;7.65;100.00;97263.78;5075640;28;20977;-67
2024/02/04 03:13:02;;;;;;;1.77;1.20;;;;;;;7.61;100.00;97253.66;5076174;28;20207;-67
2024/02/04 03:15:28;;;;;;;2.23;1.30;;;;;;;7.69;100.00;97252.03;5076391;28;20562;-67
2024/02/04 03:17:56;;;;;;;2.60;1.67;;;;;;;7.73;100.00;97242.13;5075816;28;20224;-67
2024/02/04 03:20:23;;;;;;;3.03;1.27;;;;;;;7.73;100.00;97253.44;5075654;28;20414;-67
2024/02/04 03:22:49;;;;;;;2.33;1.53;;;;;;;7.68;100.00;97266.13;5076580;28;20744;-67
2024/02/04 03:25:16;;;;;;;1.13;1.03;;;;;;;7.55;100.00;97267.34;5075887;28;20559;-67
2024/02/04 03:27:44;;;;;;;2.17;1.37;;;;;;;7.69;100.00;97261.69;5074995;28;20964;-67
2024/02/04 03:30:11;;;;;;;2.07;1.40;;;;;;;7.57;100.00;97265.41;5075132;28;20315;-66
2024/02/04 03:32:37;;;;;;;2.23;1.40;;;;;;;7.61;100.00;97264.16;5075828;28;20211;-67
2024/02/04 03:35:06;;;;;;;1.87;1.20;;;;;;;7.75;100.00;97254.13;5076080;28;20208;-67
2024/02/04 03:37:32;;;;;;;1.10;1.00;;;;;;;7.61;100.00;97265.00;5076269;28;20230;-67
2024/02/04 03:39:59;;;;;;;2.80;1.60;;;;;;;7.61;100.00;97262.38;5075477;28;20327;-67
2024/02/04 03:42:25;;;;;;;1.60;1.10;;;;;;;7.62;100.00;97271.06;5076049;28;20218;-67
2024/02/04 03:44:52;;;;;;;1.57;1.20;;;;;;;7.63;100.00;97268.31;5075504;28;20282;-67
2024/02/04 03:47:19;;;;;;;1.80;1.10;;;;;;;7.53;100.00;97262.19;5076073;28;20210;-66
2024/02/04 03:49:45;;;;;;;1.60;0.90;;;;;;;7.43;100.00;97271.84;5075548;28;20219;-67
2024/02/04 03:52:13;;;;;;;2.63;1.03;;;;;;;7.68;100.00;97266.13;5075035;28;20212;-67
2024/02/04 03:54:45;;;;;;;1.20;1.03;;;;;;;7.69;100.00;97267.78;5076342;28;20234;-67
2024/02/04 03:57:12;;;;;;;3.20;1.60;;;;;;;7.49;100.00;97279.16;5074433;28;20224;-67
2024/02/04 03:59:38;;;;;;;2.37;1.13;;;;;;;7.46;100.00;97286.50;5074737;28;20407;-67
2024/02/04 04:02:05;;;;;;;1.83;1.27;;;;;;;7.34;100.00;97277.91;5075762;28;20207;-67
2024/02/04 04:04:32;;;;;;;1.80;1.30;;;;;;;7.51;100.00;97281.66;5075674;28;20676;-67
2024/02/04 04:06:59;;;;;;;3.20;1.70;;;;;;;7.43;100.00;97281.50;5076826;28;20949;-66
2024/02/04 04:09:26;;;;;;;1.63;1.10;;;;;;;7.45;100.00;97275.16;5074870;28;20227;-67
2024/02/04 04:11:53;;;;;;;1.93;1.30;;;;;;;7.43;100.00;97266.59;5075403;28;20207;-67
2024/02/04 04:14:19;;;;;;;4.10;1.70;;;;;;;7.45;100.00;97269.09;5075582;28;20207;-67
2024/02/04 04:16:46;;;;;;;2.40;1.53;;;;;;;7.49;100.00;97270.47;5076201;28;20612;-67
2024/02/04 04:19:12;;;;;;;2.57;1.57;;;;;;;7.38;100.00;97260.94;5074427;28;20796;-67
2024/02/04 04:21:40;;;;;;;2.27;1.30;;;;;;;7.46;100.00;97250.59;5075513;28;20211;-67
2024/02/04 04:24:06;;;;;;;2.33;1.37;;;;;;;7.30;100.00;97258.13;5075559;28;20207;-67
2024/02/04 04:26:34;;;;;;;2.23;1.43;;;;;;;7.60;100.00;97250.22;5075746;28;20203;-67
2024/02/04 04:29:01;;;;;;;2.43;1.53;;;;;;;7.41;100.00;97251.97;5074679;28;20363;-67
2024/02/04 04:31:28;;;;;;;1.67;1.50;;;;;;;7.36;100.00;97248.91;5075414;28;20371;-67
2024/02/04 04:33:55;;;;;;;3.90;1.67;;;;;;;7.38;100.00;97236.50;5075476;28;20211;-67
2024/02/04 04:36:21;;;;;;;4.27;2.23;;;;;;;7.38;100.00;97246.97;5075431;28;20200;-67
2024/02/04 04:38:50;;;;;;;2.93;1.20;;;;;;;7.39;100.00;97254.69;5077390;28;20250;-67
2024/02/04 04:41:16;;;;;;;2.80;1.60;;;;;;;7.40;100.00;97248.50;5079004;28;20241;-67
2024/02/04 04:43:44;;;;;;;2.40;1.23;;;;;;;7.47;100.00;97252.25;5079269;28;20222;-66
2024/02/04 04:46:11;;;;;;;1.70;1.10;;;;;;;7.29;100.00;97256.50;5078877;28;20677;-67
2024/02/04 04:48:37;;;;;;;2.00;1.40;;;;;;;7.45;100.00;97259.41;5078584;28;20202;-67
2024/02/04 04:51:04;;;;;;;2.87;1.50;;;;;;;7.52;100.00;97267.59;5078734;28;20230;-67
2024/02/04 04:53:30;;;;;;;2.23;1.70;;;;;;;7.38;100.00;97266.19;5079110;28;20308;-67
2024/02/04 04:55:57;;;;;;;1.93;1.40;;;;;;;7.31;100.00;97277.31;5079382;28;20249;-67
2024/02/04 04:58:24;;;;;;;3.13;1.50;;;;;;;7.32;100.00;97284.22;5077517;28;20231;-67
2024/02/04 05:00:52;;;;;;;2.70;1.73;;;;;;;7.41;100.00;97270.31;5078474;28;20234;-67
2024/02/04 05:03:18;;;;;;;3.37;1.57;;;;;;;7.11;100.00;97274.75;5079176;28;20204;-67
2024/02/04 05:05:45;;;;;;;1.47;1.13;;;;;;;7.18;100.00;97273.25;5078706;28;20203;-66
2024/02/04 05:08:12;;;;;;;2.53;1.50;;;;;;;7.21;100.00;97267.75;5077751;28;20203;-66
2024/02/04 05:10:39;;;;;;;3.27;1.67;;;;;;;7.17;100.00;97269.00;5078836;28;20729;-67
2024/02/04 05:13:05;;;;;;;2.97;1.83;;;;;;;7.20;100.00;97253.00;5078756;28;20199;-67
2024/02/04 05:15:33;;;;;;;3.67;1.73;;;;;;;7.24;100.00;97249.97;5078608;28;20542;-67
2024/02/04 05:18:01;;;;;;;3.90;1.73;;;;;;;7.21;100.00;97252.84;5078953;28;20323;-67
2024/02/04 05:20:28;;;;;;;3.33;1.87;;;;;;;7.23;100.00;97260.56;5078680;28;20303;-66
2024/02/04 05:22:55;;;;;;;2.53;1.53;;;;;;;7.13;100.00;97264.94;5078238;28;20231;-67
2024/02/04 05:25:21;;;;;;;3.40;1.80;;;;;;;6.98;100.00;97261.03;5078121;28;20389;-66
2024/02/04 05:27:48;;;;;;;4.60;2.20;;;;;;;7.02;100.00;97254.56;5078920;28;20666;-67
2024/02/04 05:30:15;;;;;;;6.43;1.87;;;;;;;7.07;100.00;97257.63;5077305;28;20231;-67
2024/02/04 05:32:44;;;;;;;4.67;2.03;;;;;;;6.85;100.00;97270.91;5078003;28;20681;-67
2024/02/04 05:35:12;;;;;;;4.57;2.30;;;;;;;7.01;100.00;97268.63;5078699;28;20261;-67
2024/02/04 05:37:38;;;;;;;5.10;1.93;;;;;;;6.81;100.00;97267.69;5078648;28;20235;-66
2024/02/04 05:40:06;;;;;;;3.50;2.07;;;;;;;6.94;100.00;97267.50;5077476;28;20236;-67
2024/02/04 05:42:32;;;;;;;4.20;2.50;;;;;;;6.76;100.00;97269.06;5078148;28;20681;-67
2024/02/04 05:44:59;;;;;;;4.27;2.03;;;;;;;6.77;100.00;97268.06;5078311;28;20210;-67
2024/02/04 05:47:25;;;;;;;6.13;2.80;;;;;;;6.92;100.00;97269.41;5078465;28;20236;-67
2024/02/04 05:49:52;;;;;;;4.40;2.43;;;;;;;6.74;100.00;97270.97;5076976;28;20251;-67
2024/02/04 05:52:20;;;;;;;4.27;2.37;;;;;;;6.93;100.00;97271.88;5078346;28;20204;-67
2024/02/04 05:54:46;;;;;;;5.03;2.87;;;;;;;6.80;100.00;97273.06;5077899;28;20203;-67
2024/02/04 05:57:13;;;;;;;3.40;2.27;;;;;;;6.72;100.00;97275.47;5077093;28;20210;-67
2024/02/04 05:59:39;;;;;;;4.47;2.50;;;;;;;6.75;100.00;97267.38;5076716;28;20232;-67
2024/02/04 06:02:06;;;;;;;4.50;2.27;;;;;;;6.52;100.00;97281.56;5077579;28;20203;-67
2024/02/04 06:04:34;;;;;;;4.80;2.80;;;;;;;6.68;100.00;97279.31;5077782;28;20345;-67
2024/02/04 06:07:01;;;;;;;5.30;2.67;;;;;;;6.59;100.00;97285.31;5077552;28;20214;-67
2024/02/04 06:09:29;;;;;;;2.90;1.77;;;;;;;6.59;100.00;97300.22;5076473;28;20224;-68
2024/02/04 06:11:55;;;;;;;5.43;2.40;;;;;;;6.60;100.00;97310.56;5077112;28;20600;-67
2024/02/04 06:14:22;;;;;;;3.67;2.47;;;;;;;6.50;100.00;97303.59;5077726;28;20230;-67
2024/02/04 06:16:48;;;;;;;4.77;2.80;;;;;;;6.46;100.00;97295.16;5076842;28;20208;-67
2024/02/04 06:19:15;;;;;;;5.40;2.30;;;;;;;6.36;100.00;97299.47;5076749;28;20651;-67
2024/02/04 06:21:41;;;;;;;7.50;3.00;;;;;;;6.48;100.00;97297.63;5077501;28;20469;-67
2024/02/04 06:24:08;;;;;;;6.90;3.00;;;;;;;6.47;100.00;97304.69;5077490;28;20200;-67
2024/02/04 06:26:38;;;;;;;8.00;2.80;;;;;;;6.58;100.00;97306.41;5077260;28;20210;-67
2024/02/04 06:29:05;;;;;;;7.33;2.70;;;;;;;6.39;100.00;97306.25;5076056;28;20204;-67
2024/02/04 06:31:31;;;;;;;8.47;2.90;;;;;;;6.32;100.00;97311.16;5077774;28;20195;-67
2024/02/04 06:33:58;;;;;;;4.90;2.67;;;;;;;6.37;100.00;97297.72;5077801;28;20200;-67
2024/02/04 06:36:24;;;;;;;4.33;2.47;;;;;;;6.42;100.00;97301.59;5076934;28;20675;-67
2024/02/04 06:38:51;;;;;;;5.57;2.60;;;;;;;6.48;100.00;97308.97;5077128;28;20238;-67
2024/02/04 06:41:17;;;;;;;6.57;2.53;;;;;;;6.32;100.00;97308.53;5077436;28;20206;-68
2024/02/04 06:43:46;;;;;;;9.97;3.67;;;;;;;6.45;100.00;97296.09;5077307;28;20208;-68
2024/02/04 06:46:12;;;;;;;6.27;3.13;;;;;;;6.50;100.00;97293.13;5077475;28;20203;-68
2024/02/04 06:48:39;;;;;;;7.60;3.50;;;;;;;6.45;100.00;97296.09;5077304;28;20200;-68
2024/02/04 06:51:05;;;;;;;9.70;3.20;;;;;;;6.61;100.00;97293.91;5077119;28;20228;-68
2024/02/04 06:53:32;;;;;;;5.50;2.90;;;;;;;6.48;100.00;97293.25;5077489;28;20200;-67
2024/02/04 06:55:58;;;;;;;5.70;2.70;;;;;;;6.43;100.00;97300.66;5077454;28;20204;-68
2024/02/04 06:58:25;;;;;;;6.13;3.00;;;;;;;6.45;100.00;97283.00;5076545;28;20223;-68
2024/02/04 07:00:53;;;;;;;4.90;2.83;;;;;;;6.48;100.00;97292.41;5076512;28;20224;-68
2024/02/04 07:03:19;;;;;;;7.20;3.20;;;;;;;6.36;100.00;97294.25;5077273;28;20207;-67
2024/02/04 07:05:47;;;;;;;6.30;2.90;;;;;;;6.54;100.00;97305.81;5077422;28;20203;-68
2024/02/04 07:08:14;;;;;;;6.33;2.97;;;;;;;6.49;100.00;97310.63;5076455;28;20200;-67
2024/02/04 07:10:40;;;;;;;3.87;2.30;;;;;;;6.43;100.00;97310.28;5077239;28;20235;-68
2024/02/04 07:13:08;;;;;;;6.17;2.77;;;;;;;6.38;100.00;97315.91;5077697;28;20200;-67
2024/02/04 07:15:34;;;;;;;5.03;2.77;;;;;;;6.58;100.00;97325.59;5077131;28;20203;-67
2024/02/04 07:18:02;;;;;;;4.27;2.50;;;;;;;6.60;100.00;97320.22;5077179;28;20208;-68
2024/02/04 07:20:28;;;;;;;6.50;3.30;;;;;;;6.43;100.00;97321.59;5075860;28;21313;-67
2024/02/04 07:22:55;;;;;;;6.53;2.47;;;;;;;6.43;100.00;97328.59;5076697;28;20204;-68
2024/02/04 07:25:22;;;;;;;11.17;3.40;;;;;;;6.48;100.00;97324.66;5077185;28;20552;-67
2024/02/04 07:27:48;;;;;;;6.83;2.97;;;;;;;6.53;100.00;97319.91;5076539;28;20674;-67
2024/02/04 07:30:15;;;;;;;6.97;3.40;;;;;;;6.50;100.00;97332.41;5076323;28;20227;-67
2024/02/04 07:32:42;;;;;;;8.03;3.53;;;;;;;6.60;100.00;97331.50;5076891;28;20572;-67
2024/02/04 07:35:10;;;;;;;6.07;2.90;;;;;;;6.65;100.00;97318.88;5076494;28;21070;-68
2024/02/04 07:37:37;;;;;;;12.93;4.70;;;;;;;6.56;100.00;97314.38;5077242;28;20207;-68
2024/02/04 07:40:05;;;;;;;10.97;3.37;;;;;;;6.69;100.00;97323.75;5075900;28;20234;-68
2024/02/04 07:42:31;;;;;;;4.50;2.57;;;;;;;6.43;100.00;97318.97;5076865;28;20320;-67
2024/02/04 07:44:58;;;;;;;6.20;2.83;;;;;;;6.27;100.00;97320.34;5076887;28;20993;-67
2024/02/04 07:47:25;;;;;;;4.97;2.20;;;;;;;6.41;100.00;97314.81;5076462;28;20208;-68
2024/02/04 07:49:51;;;;;;;7.53;2.97;;;;;;;6.49;100.00;97313.25;5075717;28;20230;-68
2024/02/04 07:52:28;;;;;;;5.27;2.50;;;;;;;6.60;100.00;97307.94;5076800;28;20257;-68
2024/02/04 07:54:54;;;;;;;6.93;3.03;;;;;;;6.56;100.00;97308.34;5076246;28;20286;-67
2024/02/04 07:57:21;;;;;;;4.07;2.23;;;;;;;6.57;100.00;97317.81;5077675;28;20767;-67
2024/02/04 07:59:48;;;;;;;4.83;2.63;;;;;;;6.47;100.00;97309.91;5076425;28;20227;-67
2024/02/04 08:02:14;;;;;;;5.50;2.80;;;;;;;6.55;100.00;97315.34;5076475;28;20284;-67
2024/02/04 08:04:41;;;;;;;4.67;2.57;;;;;;;6.53;100.00;97308.56;5076276;28;20242;-67
2024/02/04 08:07:08;;;;;;;6.00;2.60;;;;;;;6.50;100.00;97309.66;5076400;28;20273;-67
2024/02/04 08:09:36;;;;;;;4.63;2.10;;;;;;;6.66;100.00;97329.22;5075528;28;20257;-67
2024/02/04 08:12:03;;;;;;;3.90;1.97;;;;;;;6.80;100.00;97312.38;5076519;28;20212;-67
2024/02/04 08:14:30;;;;;;;4.90;2.30;;;;;;;6.78;100.00;97316.88;5079811;28;20565;-67
2024/02/04 08:16:56;;;;;;;3.77;2.67;;;;;;;6.95;100.00;97311.06;5080139;28;20208;-67
2024/02/04 08:19:23;;;;;;;4.37;1.97;;;;;;;6.56;100.00;97298.69;5079679;28;20228;-67
2024/02/04 08:21:49;;;;;;;4.80;2.80;;;;;;;6.65;100.00;97297.91;5080264;28;20215;-67
2024/02/04 08:24:16;;;;;;;6.47;2.50;;;;;;;6.84;100.00;97298.03;5080166;28;20204;-67
2024/02/04 08:26:43;;;;;;;4.17;1.50;;;;;;;6.66;100.00;97283.88;5080561;28;21111;-67
2024/02/04 08:29:11;;;;;;;7.03;2.50;;;;;;;6.80;100.00;97292.22;5079929;28;20220;-67
2024/02/04 08:31:37;;;;;;;3.17;1.90;;;;;;;6.83;100.00;97285.91;5079711;28;20317;-67
2024/02/04 08:34:04;;;;;;;4.97;2.03;;;;;;;6.98;100.00;97284.63;5079945;28;20204;-68
2024/02/04 08:36:30;;;;;;;4.30;2.30;;;;;;;7.08;100.00;97285.50;5080087;28;20214;-68
2024/02/04 08:38:57;;;;;;;2.67;1.70;;;;;;;7.10;100.00;97289.63;5079497;28;20281;-67
2024/02/04 08:41:24;;;;;;;4.13;2.10;;;;;;;6.98;100.00;97282.81;5079658;28;20599;-67
2024/02/04 08:43:51;;;;;;;3.37;1.80;;;;;;;7.33;100.00;97291.09;5080350;28;20210;-68
2024/02/04 08:46:18;;;;;;;2.43;1.60;;;;;;;7.33;100.00;97281.47;5079875;28;20215;-67
2024/02/04 08:48:44;;;;;;;3.20;1.63;;;;;;;7.15;100.00;97276.97;5078917;28;20203;-67
2024/02/04 08:51:12;;;;;;;3.77;1.87;;;;;;;7.24;100.00;97275.34;5079929;28;20223;-68
2024/02/04 08:53:38;;;;;;;3.87;1.97;;;;;;;7.00;100.00;97261.72;5079691;28;20289;-67
2024/02/04 08:56:07;;;;;;;4.53;1.90;;;;;;;7.39;100.00;97269.63;5079076;28;20203;-67
2024/02/04 08:58:33;;;;;;;6.90;1.77;;;;;;;7.11;100.00;97274.75;5079106;28;20203;-70
2024/02/04 09:01:01;;;;;;;3.57;2.00;;;;;;;7.26;100.00;97284.75;5080036;28;20228;-67
2024/02/04 09:03:27;;;;;;;2.87;1.40;;;;;;;7.17;100.00;97290.78;5078938;28;20206;-67
2024/02/04 09:05:54;;;;;;;3.87;1.77;;;;;;;7.31;100.00;97293.88;5079293;28;20227;-67
2024/02/04 09:08:21;;;;;;;1.97;1.20;;;;;;;7.26;100.00;97295.22;5079636;28;20673;-67
2024/02/04 09:10:47;;;;;;;2.20;1.33;;;;;;;7.11;100.00;97280.00;5078703;28;20215;-70
2024/02/04 09:13:14;;;;;;;3.90;2.03;;;;;;;7.25;100.00;97292.75;5078509;28;20982;-69
2024/02/04 09:15:40;;;;;;;1.57;1.00;;;;;;;7.19;100.00;97282.78;5079244;28;20218;-67
2024/02/04 09:18:08;;;;;;;4.60;1.53;;;;;;;7.32;100.00;97279.81;5078360;28;20211;-68
2024/02/04 09:20:35;;;;;;;2.23;1.60;;;;;;;7.27;100.00;97276.75;5078237;28;20224;-69
2024/02/04 09:23:02;;;;;;;4.03;2.00;;;;;;;7.19;100.00;97283.59;5079466;28;20204;-70
2024/02/04 09:25:29;;;;;;;4.10;2.53;;;;;;;7.27;100.00;97268.88;5077851;28;20617;-68
2024/02/04 09:27:55;;;;;;;4.23;1.43;;;;;;;7.16;100.00;97272.56;5079099;28;20207;-68
2024/02/04 09:30:22;;;;;;;3.87;1.70;;;;;;;7.29;100.00;97274.84;5077491;28;20705;-68
2024/02/04 09:32:48;;;;;;;2.47;1.50;;;;;;;7.26;100.00;97274.25;5078867;28;20203;-68
2024/02/04 09:35:16;;;;;;;6.50;1.77;;;;;;;7.56;100.00;97275.06;5078620;28;20199;-68
2024/02/04 09:37:43;;;;;;;3.63;1.40;;;;;;;7.59;100.00;97281.84;5078490;28;20204;-68
2024/02/04 09:40:11;;;;;;;5.00;3.17;;;;;;;7.70;100.00;97281.72;5078434;28;20331;-68
2024/02/04 09:42:38;;;;;;;2.60;1.73;;;;;;;7.47;100.00;97275.88;5078936;28;20204;-68
2024/02/04 09:45:06;;;;;;;5.93;2.83;;;;;;;7.50;100.00;97278.22;5078093;28;20207;-68
2024/02/04 09:47:35;;;;;;;2.57;1.43;;;;;;;7.47;100.00;97281.13;5078620;28;20666;-68
2024/02/04 09:50:02;;;;;;;2.97;1.63;;;;;;;7.36;100.00;97275.97;5077140;28;20697;-68
2024/02/04 09:52:31;;;;;;;4.10;2.10;;;;;;;7.65;100.00;97271.63;5078342;28;20208;-68
2024/02/04 09:55:00;;;;;;;4.10;1.63;;;;;;;7.44;100.00;97285.78;5078392;28;20649;-68
2024/02/04 09:57:27;;;;;;;1.30;0.87;;;;;;;7.49;100.00;97289.66;5078237;28;20264;-69
2024/02/04 09:59:53;;;;;;;2.80;1.60;;;;;;;7.47;100.00;97296.00;5077249;28;20228;-68
2024/02/04 10:02:22;;;;;;;2.63;1.93;;;;;;;7.81;100.00;97287.69;5078436;28;20203;-69
2024/02/04 10:04:57;;;;;;;4.90;2.33;;;;;;;7.79;100.00;97292.25;5078527;28;20204;-69
2024/02/04 10:07:34;;;;;;;2.63;1.80;;;;;;;7.84;100.00;97273.47;5078269;28;20680;-69
2024/02/04 10:10:01;;;;;;;4.97;2.53;;;;;;;7.66;100.00;97281.19;5076883;28;20227;-69
2024/02/04 10:12:28;;;;;;;1.63;1.40;;;;;;;7.88;100.00;97296.69;5078687;28;20206;-69
2024/02/04 10:14:54;;;;;;;4.03;2.20;;;;;;;8.07;100.00;97280.94;5077876;28;20985;-69
2024/02/04 10:17:22;;;;;;;2.60;1.63;;;;;;;8.30;100.00;97282.38;5077630;28;20211;-68
2024/02/04 10:19:48;;;;;;;2.50;1.73;;;;;;;8.46;100.00;97275.63;5077506;28;20228;-68
2024/02/04 10:22:16;;;;;;;1.73;1.20;;;;;;;8.41;100.00;97282.25;5078121;28;20200;-69
2024/02/04 10:24:46;;;;;;;4.57;2.03;;;;;;;8.65;100.00;97276.41;5078111;28;20208;-68
2024/02/04 10:27:13;;;;;;;4.40;2.67;;;;;;;8.53;100.00;97274.09;5078433;28;20199;-69
2024/02/04 10:29:40;;;;;;;3.80;1.60;;;;;;;8.36;100.00;97268.72;5076443;28;20227;-69
2024/02/04 10:32:08;;;;;;;4.43;1.80;;;;;;;8.44;100.00;97268.84;5077171;28;20670;-69
2024/02/04 10:34:38;;;;;;;10.00;3.20;;;;;;;8.48;100.00;97266.63;5077993;28;20569;-69
2024/02/04 10:37:04;;;;;;;5.97;2.00;;;;;;;8.61;100.00;97264.53;5077328;28;20196;-68
2024/02/04 10:39:31;;;;;;;1.10;1.00;;;;;;;8.34;100.00;97276.72;5076783;28;20702;-69
2024/02/04 10:42:03;;;;;;;1.83;1.07;;;;;;;8.70;100.00;97282.09;5077787;28;20840;-69
2024/02/04 10:44:36;;;;;;;2.70;1.53;;;;;;;8.80;100.00;97277.66;5077331;28;20249;-69
2024/02/04 10:47:06;;;;;;;2.60;1.40;;;;;;;9.01;100.00;97269.59;5077217;28;20243;-69
2024/02/04 10:49:36;;;;;;;2.97;1.67;;;;;;;8.93;100.00;97259.78;5077136;28;20230;-69
2024/02/04 10:52:07;;;;;;;2.97;2.00;;;;;;;9.07;100.00;97261.94;5077223;28;20200;-69
2024/02/04 10:54:36;;;;;;;3.37;2.00;;;;;;;9.15;100.00;97251.53;5077535;28;20195;-69
2024/02/04 10:57:06;;;;;;;2.33;1.43;;;;;;;9.20;100.00;97246.69;5077064;28;20693;-69
2024/02/04 10:59:34;;;;;;;4.53;1.47;;;;;;;8.88;100.00;97233.09;5076324;28;20246;-69
2024/02/04 11:02:02;;;;;;;3.07;2.00;;;;;;;8.71;100.00;97233.00;5076681;28;20947;-69
2024/02/04 11:04:29;;;;;;;2.27;1.53;;;;;;;8.89;100.00;97231.31;5077148;28;20192;-69
2024/02/04 11:06:57;;;;;;;2.50;1.20;;;;;;;9.04;100.00;97216.69;5077579;28;20196;-70
2024/02/04 11:09:24;;;;;;;3.57;1.60;;;;;;;9.10;100.00;97224.88;5076522;28;20228;-69
2024/02/04 11:11:52;;;;;;;2.63;1.47;;;;;;;9.10;100.00;97219.63;5077035;28;20769;-69
2024/02/04 11:14:22;;;;;;;1.97;1.47;;;;;;;9.05;100.00;97221.84;5077133;28;20717;-69
2024/02/04 11:17:09;;;;;;;1.97;1.40;;;;;;;9.31;100.00;97207.06;5076546;28;20987;-69
2024/02/04 11:19:48;;;;;;;4.33;1.47;;;;;;;9.56;100.00;97201.09;5075497;28;20223;-70
2024/02/04 11:22:26;;;;;;;1.87;1.40;;;;;;;9.74;100.00;97200.97;5077714;28;20206;-69
2024/02/04 11:25:15;;;;;;;1.37;1.20;;;;;;;9.56;100.00;97185.31;5076459;28;20195;-68
2024/02/04 11:27:42;;;;;;;1.53;1.03;;;;;;;9.33;100.00;97184.91;5076915;28;20207;-67
2024/02/04 11:30:11;;;;;;;3.00;1.40;;;;;;;9.40;100.00;97179.88;5076567;28;20220;-69
2024/02/04 11:32:37;;;;;;;2.03;1.40;;;;;;;9.37;100.00;97170.47;5076838;28;20208;-68
2024/02/04 11:35:07;;;;;;;5.20;1.50;;;;;;;9.12;100.00;97175.59;5076853;28;20206;-68